Time;durP1;ratioP1;P1;durP2;ratioP2;P2;SDS_P1;SDS_P2;PMS_P1;PMS_P2;Temp;Humidity;BMP_temperature;BMP_pressure;BME280_temperature;BME280_humidity;BME280_pressure;Samples;Min_cycle;Max_cycle;Signal;HPM_P1;HPM_P2
2023/01/05 00:01:05;;;;;;;0.40;0.40;;;9.00;99.90;;;;;;4988289;28;20097;-82
2023/01/05 00:03:31;;;;;;;0.68;0.68;;;9.00;99.90;;;;;;4986545;28;20069;-83
2023/01/05 00:06:11;;;;;;;0.40;0.40;;;8.90;99.90;;;;;;4983334;28;20073;-82
2023/01/05 00:08:37;;;;;;;0.40;0.40;;;9.00;99.90;;;;;;4984893;28;20054;-82
2023/01/05 00:22:30;;;;;;;0.40;0.40;;;8.90;99.90;;;;;;4986100;28;20045;-82
2023/01/05 00:25:16;;;;;;;0.43;0.43;;;8.90;99.90;;;;;;4982687;28;20054;-81
2023/01/05 00:27:44;;;;;;;0.40;0.40;;;8.90;99.90;;;;;;4985188;28;20492;-83
2023/01/05 00:30:12;;;;;;;0.40;0.40;;;8.90;99.90;;;;;;4987545;28;20082;-83
2023/01/05 00:32:39;;;;;;;0.40;0.40;;;8.90;99.90;;;;;;4985180;28;20046;-84
2023/01/05 00:35:05;;;;;;;0.50;0.50;;;8.90;99.90;;;;;;4965563;28;20044;-81
2023/01/05 00:37:32;;;;;;;0.40;0.40;;;9.00;99.90;;;;;;4982595;28;20691;-84
2023/01/05 00:39:58;;;;;;;0.45;0.45;;;8.80;99.90;;;;;;4968783;28;20050;-84
2023/01/05 00:42:24;;;;;;;0.30;0.30;;;8.80;99.90;;;;;;4971991;28;20097;-84
2023/01/05 00:44:50;;;;;;;0.50;0.50;;;8.80;99.90;;;;;;4988334;28;20042;-84
2023/01/05 00:47:16;;;;;;;0.40;0.40;;;8.80;99.90;;;;;;4987103;28;20452;-83
2023/01/05 00:49:42;;;;;;;0.70;0.70;;;8.80;99.90;;;;;;4987311;28;20068;-83
2023/01/05 00:52:08;;;;;;;0.50;0.50;;;8.80;99.90;;;;;;4955727;28;20137;-83
2023/01/05 00:54:34;;;;;;;0.40;0.40;;;8.80;99.90;;;;;;4968446;28;20122;-83
2023/01/05 00:57:00;;;;;;;0.50;0.50;;;8.80;99.90;;;;;;4987012;28;20126;-83
2023/01/05 00:59:26;;;;;;;0.50;0.50;;;8.80;99.90;;;;;;4969164;28;20545;-83
2023/01/05 01:01:53;;;;;;;0.40;0.40;;;8.80;99.90;;;;;;4973441;28;20050;-83
2023/01/05 01:04:20;;;;;;;0.30;0.30;;;8.80;99.90;;;;;;4986440;28;20042;-83
2023/01/05 01:06:46;;;;;;;0.50;0.50;;;8.80;99.90;;;;;;4971939;28;20042;-82
2023/01/05 01:09:12;;;;;;;1.98;0.73;;;8.80;99.90;;;;;;4989257;28;20034;-83
2023/01/05 01:11:39;;;;;;;0.40;0.40;;;8.80;99.90;;;;;;5005646;28;20057;-82
2023/01/05 01:14:06;;;;;;;;;;;8.80;99.90;;;;;;4990404;28;20051;-85
2023/01/05 01:16:32;;;;;;;0.40;0.40;;;8.80;99.90;;;;;;4994988;28;19921;-84
2023/01/05 01:18:58;;;;;;;0.50;0.50;;;8.80;99.90;;;;;;4993002;28;20042;-83
2023/01/05 01:21:24;;;;;;;0.60;0.60;;;8.80;99.90;;;;;;4992767;28;20077;-83
2023/01/05 01:23:50;;;;;;;0.47;0.47;;;8.80;99.90;;;;;;4990043;28;20107;-83
2023/01/05 01:26:16;;;;;;;0.40;0.40;;;8.90;99.90;;;;;;4990145;28;20066;-83
2023/01/05 01:28:41;;;;;;;0.50;0.50;;;8.90;99.90;;;;;;4971256;28;20051;-84
2023/01/05 01:31:07;;;;;;;0.30;0.30;;;8.90;99.90;;;;;;4990268;28;20057;-83
2023/01/05 01:33:37;;;;;;;0.52;0.52;;;8.90;99.90;;;;;;4973870;28;20057;-83
2023/01/05 01:36:04;;;;;;;0.40;0.40;;;8.90;99.90;;;;;;5005586;28;20046;-84
2023/01/05 01:38:30;;;;;;;0.40;0.40;;;8.90;99.90;;;;;;4992028;28;20038;-84
2023/01/05 01:40:56;;;;;;;0.43;0.43;;;8.90;99.90;;;;;;4991182;28;20510;-84
2023/01/05 01:43:47;;;;;;;0.38;0.38;;;8.90;99.90;;;;;;4992054;28;20050;-83
2023/01/05 01:46:14;;;;;;;0.40;0.40;;;9.00;99.90;;;;;;4987565;28;20046;-84
2023/01/05 01:48:48;;;;;;;3.40;1.10;;;9.00;99.90;;;;;;5007443;28;20058;-83
2023/01/05 01:51:21;;;;;;;0.40;0.40;;;9.00;99.90;;;;;;4975840;28;20042;-82
2023/01/05 01:53:54;;;;;;;0.40;0.40;;;9.00;99.90;;;;;;4991021;28;20066;-83
2023/01/05 01:56:22;;;;;;;0.40;0.40;;;9.00;99.90;;;;;;4990653;28;20057;-83
2023/01/05 01:58:49;;;;;;;0.40;0.40;;;9.10;99.90;;;;;;4991736;28;20443;-83
2023/01/05 02:01:16;;;;;;;0.50;0.50;;;9.00;99.90;;;;;;4991992;28;20042;-84
2023/01/05 02:03:42;;;;;;;0.30;0.30;;;9.10;99.90;;;;;;4990769;28;20045;-83
2023/01/05 02:06:09;;;;;;;0.38;0.38;;;9.10;99.90;;;;;;4976371;28;20045;-84
2023/01/05 02:08:35;;;;;;;0.30;0.30;;;9.10;99.90;;;;;;4958251;28;20042;-84
2023/01/05 02:11:06;;;;;;;0.40;0.40;;;9.10;99.90;;;;;;4968959;28;20061;-84
2023/01/05 02:14:06;;;;;;;0.40;0.40;;;9.10;99.90;;;;;;4991170;28;20049;-83
2023/01/05 02:16:38;;;;;;;0.47;0.47;;;9.10;99.90;;;;;;4992096;28;20065;-84
2023/01/05 02:19:35;;;;;;;0.60;0.60;;;9.10;99.90;;;;;;4991719;28;20077;-83
2023/01/05 02:22:01;;;;;;;;;;;9.10;99.90;;;;;;4982103;28;20443;-84
2023/01/05 02:24:54;;;;;;;0.40;0.40;;;9.10;99.90;;;;;;4987614;28;19944;-83
2023/01/05 02:27:43;;;;;;;0.40;0.40;;;9.10;99.90;;;;;;5010562;28;20066;-82
2023/01/05 02:30:31;;;;;;;0.50;0.50;;;9.20;99.90;;;;;;5008430;28;20136;-85
2023/01/05 02:33:37;;;;;;;0.40;0.40;;;9.20;99.90;;;;;;4990759;28;20113;-83
2023/01/05 02:36:16;;;;;;;0.50;0.50;;;9.20;99.90;;;;;;4991388;28;20045;-83
2023/01/05 02:38:48;;;;;;;1.02;1.02;;;9.20;99.90;;;;;;4988764;28;20044;-82
2023/01/05 02:41:56;;;;;;;0.40;0.40;;;9.20;99.90;;;;;;4988929;28;20057;-82
2023/01/05 02:44:22;;;;;;;0.50;0.50;;;9.20;99.90;;;;;;4983567;28;20116;-82
2023/01/05 02:46:59;;;;;;;0.43;0.43;;;9.20;99.90;;;;;;4966502;28;20309;-82
2023/01/05 02:49:27;;;;;;;0.50;0.50;;;9.20;99.90;;;;;;4970690;28;20441;-82
2023/01/05 02:51:55;;;;;;;0.43;0.43;;;9.20;99.90;;;;;;4984259;28;20117;-81
2023/01/05 02:54:28;;;;;;;0.30;0.30;;;9.30;99.90;;;;;;4988098;28;20039;-82
2023/01/05 02:57:00;;;;;;;0.32;0.32;;;9.20;99.90;;;;;;4992843;28;20493;-81
2023/01/05 02:59:38;;;;;;;0.50;0.50;;;9.20;99.90;;;;;;4957020;28;20049;-80
2023/01/05 03:02:14;;;;;;;0.38;0.38;;;9.20;99.90;;;;;;4989676;28;20471;-83
2023/01/05 03:04:51;;;;;;;0.50;0.50;;;9.20;99.90;;;;;;4985797;28;20043;-82
2023/01/05 03:07:22;;;;;;;0.40;0.40;;;9.30;99.90;;;;;;4991174;28;20049;-82
2023/01/05 03:09:50;;;;;;;0.57;0.57;;;9.30;99.90;;;;;;5004646;28;20251;-84
2023/01/05 03:15:27;;;;;;;0.52;0.52;;;9.30;99.90;;;;;;4987265;28;20019;-82
2023/01/05 03:18:09;;;;;;;0.40;0.40;;;9.30;99.90;;;;;;4998010;28;20404;-81
2023/01/05 03:20:39;;;;;;;0.70;0.70;;;9.30;99.90;;;;;;4987264;28;20117;-83
2023/01/05 03:37:33;;;;;;;0.40;0.40;;;9.30;99.90;;;;;;4989600;28;20046;-82
2023/01/05 03:40:01;;;;;;;0.50;0.50;;;9.30;99.90;;;;;;4988173;28;20053;-82
2023/01/05 03:42:29;;;;;;;0.43;0.43;;;9.30;99.90;;;;;;4974727;28;20066;-82
2023/01/05 03:44:55;;;;;;;0.35;0.35;;;9.30;99.90;;;;;;4992105;28;20049;-83
2023/01/05 03:47:22;;;;;;;0.68;0.68;;;9.30;99.90;;;;;;4976487;28;20046;-81
2023/01/05 03:49:49;;;;;;;0.52;0.52;;;9.30;99.90;;;;;;5005060;28;20140;-83
2023/01/05 03:52:14;;;;;;;0.40;0.40;;;9.30;99.90;;;;;;4970177;28;20526;-81
2023/01/05 03:54:40;;;;;;;0.40;0.40;;;9.30;99.90;;;;;;4972763;28;20143;-82
2023/01/05 03:57:06;;;;;;;0.65;0.65;;;9.30;99.90;;;;;;4971107;28;20082;-81
2023/01/05 03:59:31;;;;;;;0.50;0.50;;;9.30;99.90;;;;;;4968801;28;20034;-82
2023/01/05 04:02:03;;;;;;;0.40;0.40;;;9.30;99.90;;;;;;4988559;28;20047;-82
2023/01/05 04:04:29;;;;;;;;;;;9.30;99.90;;;;;;4987486;28;20042;-81
2023/01/05 04:06:54;;;;;;;0.40;0.40;;;9.30;99.90;;;;;;4986746;28;19972;-81
2023/01/05 04:09:20;;;;;;;0.50;0.50;;;9.30;99.90;;;;;;4984954;28;20050;-82
2023/01/05 04:11:46;;;;;;;0.70;0.70;;;9.30;99.90;;;;;;4986094;28;20045;-81
2023/01/05 04:14:11;;;;;;;8.95;2.25;;;9.30;99.90;;;;;;4985209;28;20125;-81
2023/01/05 04:16:37;;;;;;;0.50;0.50;;;9.30;99.90;;;;;;4982743;28;20049;-81
2023/01/05 04:19:03;;;;;;;0.88;0.88;;;9.30;99.90;;;;;;4970856;28;20476;-83
2023/01/05 04:21:28;;;;;;;1.33;1.33;;;9.30;99.90;;;;;;4982982;28;20039;-80
2023/01/05 04:23:54;;;;;;;1.33;1.23;;;9.30;99.90;;;;;;4988350;28;20112;-82
2023/01/05 04:26:20;;;;;;;0.82;0.82;;;9.40;99.90;;;;;;4986885;28;20054;-81
2023/01/05 04:28:51;;;;;;;1.40;1.30;;;9.40;99.90;;;;;;4985671;28;20108;-83
2023/01/05 04:31:17;;;;;;;0.75;0.75;;;9.40;99.90;;;;;;4952572;28;20077;-81
2023/01/05 04:33:44;;;;;;;0.40;0.40;;;9.40;99.90;;;;;;4956284;28;20041;-82
2023/01/05 04:36:10;;;;;;;0.57;0.57;;;9.40;99.90;;;;;;4988443;28;20050;-82
2023/01/05 04:38:35;;;;;;;0.40;0.40;;;9.40;99.90;;;;;;4990463;28;20042;-82
2023/01/05 04:41:01;;;;;;;0.40;0.40;;;9.40;99.90;;;;;;4999444;28;20069;-81
2023/01/05 04:43:30;;;;;;;0.50;0.50;;;9.40;99.90;;;;;;4992775;28;20081;-81
2023/01/05 04:45:59;;;;;;;0.40;0.40;;;9.40;99.90;;;;;;4984307;28;20168;-81
2023/01/05 04:48:26;;;;;;;0.47;0.47;;;9.40;99.90;;;;;;4992289;28;20121;-81
2023/01/05 04:50:55;;;;;;;0.43;0.43;;;9.40;99.90;;;;;;4991560;28;20050;-84
2023/01/05 04:53:22;;;;;;;0.52;0.52;;;9.40;99.90;;;;;;4993290;28;20065;-83
2023/01/05 04:55:48;;;;;;;1.42;1.20;;;9.40;99.90;;;;;;4992705;28;20098;-81
2023/01/05 04:58:13;;;;;;;;;;;9.40;99.90;;;;;;4959691;28;20046;-82
2023/01/05 05:00:40;;;;;;;0.60;0.60;;;9.40;99.90;;;;;;4990887;28;19921;-82
2023/01/05 05:03:06;;;;;;;0.73;0.73;;;9.40;99.90;;;;;;4990009;28;20046;-82
2023/01/05 05:05:32;;;;;;;0.25;0.25;;;9.40;99.90;;;;;;5008072;28;20049;-83
2023/01/05 05:07:58;;;;;;;0.40;0.40;;;9.40;99.90;;;;;;4988659;28;20052;-81
2023/01/05 05:10:24;;;;;;;0.50;0.50;;;9.40;99.90;;;;;;4988302;28;20066;-82
2023/01/05 05:12:49;;;;;;;0.38;0.38;;;9.40;99.90;;;;;;5002842;28;20066;-81
2023/01/05 05:15:16;;;;;;;1.42;1.42;;;9.50;99.90;;;;;;4985774;28;20484;-81
2023/01/05 05:17:42;;;;;;;0.85;0.85;;;9.50;99.90;;;;;;4988418;28;20492;-81
2023/01/05 05:20:08;;;;;;;0.60;0.60;;;9.50;99.90;;;;;;4975666;28;20046;-82
2023/01/05 05:22:34;;;;;;;0.90;0.90;;;9.40;99.90;;;;;;4987734;28;20110;-82
2023/01/05 05:25:04;;;;;;;2.92;2.80;;;9.40;99.90;;;;;;4989451;28;20081;-82
2023/01/05 05:27:30;;;;;;;0.50;0.50;;;9.40;99.90;;;;;;4972105;28;20472;-81
2023/01/05 05:29:55;;;;;;;6.65;3.72;;;9.40;99.90;;;;;;4991159;28;20042;-81
2023/01/05 05:32:21;;;;;;;1.25;1.25;;;9.40;99.90;;;;;;4990366;28;20058;-82
2023/01/05 05:34:47;;;;;;;0.40;0.40;;;9.40;99.90;;;;;;4990573;28;20062;-81
2023/01/05 05:37:14;;;;;;;0.85;0.73;;;9.40;99.90;;;;;;4959873;28;20444;-82
2023/01/05 05:39:39;;;;;;;0.40;0.40;;;9.40;99.90;;;;;;4987203;28;20030;-82
2023/01/05 05:42:05;;;;;;;0.40;0.40;;;9.50;99.90;;;;;;4985421;28;21728;-82
2023/01/05 05:44:31;;;;;;;1.08;1.08;;;9.40;99.90;;;;;;4987837;28;21721;-82
2023/01/05 05:46:56;;;;;;;0.45;0.45;;;9.50;99.90;;;;;;4985746;28;20053;-81
2023/01/05 05:49:22;;;;;;;0.50;0.50;;;9.50;99.90;;;;;;4990674;28;20487;-80
2023/01/05 05:51:48;;;;;;;0.30;0.30;;;9.50;99.90;;;;;;4972268;28;20052;-81
2023/01/05 05:54:14;;;;;;;0.73;0.73;;;9.50;99.90;;;;;;4986372;28;20131;-81
2023/01/05 05:56:39;;;;;;;0.52;0.52;;;9.40;99.90;;;;;;4990820;28;20034;-81
2023/01/05 05:59:05;;;;;;;0.45;0.45;;;9.50;99.90;;;;;;4991654;28;20050;-81
2023/01/05 06:01:31;;;;;;;0.73;0.73;;;9.50;99.90;;;;;;4993870;28;20045;-83
2023/01/05 06:03:56;;;;;;;1.00;1.00;;;9.50;99.90;;;;;;4986460;28;20935;-82
2023/01/05 06:06:22;;;;;;;1.77;1.67;;;9.40;99.90;;;;;;4990669;28;20117;-81
2023/01/05 06:08:48;;;;;;;0.80;0.80;;;9.40;99.90;;;;;;4989242;28;20392;-82
2023/01/05 06:11:13;;;;;;;1.27;1.27;;;9.40;99.90;;;;;;4990512;28;20042;-83
2023/01/05 06:13:39;;;;;;;0.55;0.55;;;9.40;99.90;;;;;;4990034;28;20117;-82
2023/01/05 06:16:05;;;;;;;1.65;1.55;;;9.40;99.90;;;;;;4988010;28;20503;-80
2023/01/05 06:18:31;;;;;;;0.32;0.32;;;9.40;99.90;;;;;;4989103;28;20046;-83
2023/01/05 06:20:56;;;;;;;0.52;0.52;;;9.40;99.90;;;;;;4971109;28;20077;-82
2023/01/05 06:23:22;;;;;;;1.67;1.65;;;9.40;99.90;;;;;;4989147;28;20042;-82
2023/01/05 06:25:48;;;;;;;0.77;0.73;;;9.40;99.90;;;;;;4986264;28;20051;-82
2023/01/05 06:28:13;;;;;;;0.45;0.45;;;9.30;99.90;;;;;;4987713;28;20047;-82
2023/01/05 06:30:39;;;;;;;0.50;0.50;;;9.20;99.90;;;;;;4987503;28;20046;-83
2023/01/05 06:33:05;;;;;;;0.30;0.30;;;9.10;99.90;;;;;;4974982;28;20058;-81
2023/01/05 06:35:30;;;;;;;0.47;0.47;;;9.10;99.90;;;;;;4972117;28;20106;-81
2023/01/05 06:38:02;;;;;;;0.45;0.45;;;9.10;99.90;;;;;;4972023;28;20069;-81
2023/01/05 06:40:27;;;;;;;0.73;0.73;;;9.00;99.90;;;;;;4985985;28;20440;-81
2023/01/05 06:42:53;;;;;;;0.40;0.40;;;9.00;99.90;;;;;;4985026;28;20395;-80
2023/01/05 06:45:19;;;;;;;0.32;0.32;;;9.00;99.90;;;;;;4981013;28;20088;-81
2023/01/05 06:47:45;;;;;;;0.65;0.65;;;9.00;99.90;;;;;;4988769;28;20046;-81
2023/01/05 06:50:10;;;;;;;0.40;0.40;;;9.10;99.90;;;;;;4986366;28;20144;-82
2023/01/05 06:52:38;;;;;;;0.40;0.40;;;9.00;99.90;;;;;;4987964;28;20061;-82
2023/01/05 06:55:09;;;;;;;0.43;0.43;;;9.00;99.90;;;;;;4989997;28;20053;-83
2023/01/05 06:57:35;;;;;;;0.40;0.40;;;9.00;99.90;;;;;;4966404;28;20053;-82
2023/01/05 07:00:07;;;;;;;0.40;0.40;;;8.90;99.90;;;;;;4985809;28;20117;-82
2023/01/05 07:02:34;;;;;;;0.75;0.75;;;9.00;99.90;;;;;;4981639;28;20092;-83
2023/01/05 07:05:00;;;;;;;0.40;0.40;;;9.00;99.90;;;;;;4987990;28;20073;-82
2023/01/05 07:07:26;;;;;;;0.88;0.88;;;9.00;99.90;;;;;;4990188;28;20062;-82
2023/01/05 07:09:51;;;;;;;0.50;0.50;;;9.00;99.90;;;;;;4985478;28;20486;-81
2023/01/05 07:12:17;;;;;;;0.80;0.80;;;9.00;99.90;;;;;;4973275;28;20420;-83
2023/01/05 07:14:43;;;;;;;0.55;0.55;;;9.00;99.90;;;;;;4975568;28;20042;-84
2023/01/05 07:17:11;;;;;;;0.70;0.70;;;9.10;99.90;;;;;;4987355;28;20140;-82
2023/01/05 07:19:37;;;;;;;1.05;1.05;;;9.00;99.90;;;;;;4971731;28;20048;-84
2023/01/05 07:22:03;;;;;;;1.10;1.10;;;9.10;99.90;;;;;;4986473;28;20453;-84
2023/01/05 07:24:29;;;;;;;0.60;0.60;;;9.10;99.90;;;;;;4986725;28;20049;-82
2023/01/05 07:26:57;;;;;;;0.40;0.40;;;9.20;99.90;;;;;;4986086;28;20053;-83
2023/01/05 07:29:22;;;;;;;0.40;0.40;;;9.10;99.90;;;;;;4987130;28;20054;-83
2023/01/05 07:31:51;;;;;;;0.40;0.40;;;9.10;99.90;;;;;;4972976;28;20069;-81
2023/01/05 07:34:17;;;;;;;0.60;0.60;;;9.20;99.90;;;;;;4986405;28;20054;-83
2023/01/05 07:36:43;;;;;;;0.40;0.40;;;9.10;99.90;;;;;;4984774;28;20042;-84
2023/01/05 07:39:08;;;;;;;2.00;1.90;;;9.10;99.90;;;;;;4987053;28;20396;-82
2023/01/05 07:41:34;;;;;;;0.47;0.47;;;9.10;99.90;;;;;;4997173;28;20042;-83
2023/01/05 07:44:00;;;;;;;0.50;0.50;;;9.10;99.90;;;;;;4988874;28;20094;-82
2023/01/05 07:46:25;;;;;;;0.50;0.50;;;9.10;99.90;;;;;;4987388;28;21761;-82
2023/01/05 07:48:51;;;;;;;0.73;0.73;;;9.10;99.90;;;;;;4952847;28;20140;-82
2023/01/05 07:51:17;;;;;;;0.65;0.65;;;9.10;99.90;;;;;;4988079;28;20042;-85
2023/01/05 07:53:43;;;;;;;0.70;0.70;;;9.10;99.90;;;;;;4973835;28;20064;-83
2023/01/05 07:56:10;;;;;;;0.60;0.60;;;9.00;99.90;;;;;;5007071;28;20084;-83
2023/01/05 07:58:36;;;;;;;1.10;1.10;;;9.10;99.90;;;;;;5010177;28;20160;-83
2023/01/05 08:01:06;;;;;;;0.40;0.40;;;9.10;99.90;;;;;;4985811;28;20050;-82
2023/01/05 08:03:32;;;;;;;0.50;0.50;;;9.10;99.90;;;;;;5000908;28;20038;-84
2023/01/05 08:06:02;;;;;;;0.40;0.40;;;9.10;99.90;;;;;;4986038;28;20590;-83
2023/01/05 08:08:28;;;;;;;0.45;0.45;;;9.10;99.90;;;;;;4986994;28;20053;-84
2023/01/05 08:10:53;;;;;;;3.55;3.22;;;9.10;99.90;;;;;;5002267;28;20050;-82
2023/01/05 08:16:04;;;;;;;0.40;0.40;;;9.10;99.90;;;;;;5003404;28;20042;-85
2023/01/05 08:18:29;;;;;;;0.60;0.60;;;9.10;99.90;;;;;;4971158;28;20043;-84
2023/01/05 08:20:58;;;;;;;0.60;0.60;;;9.10;99.90;;;;;;4974593;28;20045;-83
2023/01/05 08:23:25;;;;;;;0.50;0.50;;;9.10;99.90;;;;;;4988187;28;20054;-86
2023/01/05 08:25:51;;;;;;;0.50;0.50;;;9.10;99.90;;;;;;4975879;28;20054;-85
2023/01/05 08:28:17;;;;;;;0.60;0.60;;;9.10;99.90;;;;;;4973584;28;20050;-85
2023/01/05 08:30:49;;;;;;;0.40;0.40;;;9.20;99.90;;;;;;4976771;28;20061;-88
2023/01/05 08:33:15;;;;;;;1.92;1.83;;;9.10;99.90;;;;;;4989620;28;20050;-85
2023/01/05 08:35:42;;;;;;;0.45;0.45;;;9.20;99.90;;;;;;4974897;28;20061;-83
2023/01/05 08:38:09;;;;;;;0.40;0.40;;;9.20;99.90;;;;;;4994707;28;20381;-84
2023/01/05 08:40:37;;;;;;;0.85;0.85;;;9.10;99.90;;;;;;4994455;28;20042;-86
2023/01/05 08:43:03;;;;;;;0.40;0.40;;;9.10;99.90;;;;;;4972850;28;20049;-86
2023/01/05 08:45:29;;;;;;;0.40;0.40;;;9.10;99.90;;;;;;4972896;28;20056;-86
2023/01/05 08:47:55;;;;;;;3.33;3.13;;;9.20;99.90;;;;;;5004185;28;20180;-86
2023/01/05 08:50:21;;;;;;;0.55;0.55;;;9.00;99.90;;;;;;4972906;28;20427;-83
2023/01/05 08:52:46;;;;;;;0.40;0.40;;;9.00;99.90;;;;;;4943860;28;20146;-84
2023/01/05 08:55:12;;;;;;;0.85;0.85;;;9.00;99.90;;;;;;4974070;28;20054;-84
2023/01/05 08:57:38;;;;;;;0.52;0.52;;;9.00;99.90;;;;;;4991600;28;20480;-82
2023/01/05 09:00:04;;;;;;;0.60;0.60;;;9.00;99.90;;;;;;4986496;28;20042;-83
2023/01/05 09:02:30;;;;;;;0.40;0.40;;;8.90;99.90;;;;;;4987038;28;20053;-83
2023/01/05 09:04:56;;;;;;;0.40;0.40;;;8.90;99.90;;;;;;4988625;28;20057;-82
2023/01/05 09:07:22;;;;;;;0.60;0.60;;;8.90;99.90;;;;;;4987199;28;20064;-85
2023/01/05 09:09:48;;;;;;;0.40;0.40;;;8.90;99.90;;;;;;4970730;28;20996;-83
2023/01/05 09:12:13;;;;;;;0.70;0.70;;;8.90;99.90;;;;;;4986336;28;20054;-84
2023/01/05 09:14:39;;;;;;;0.50;0.50;;;8.90;99.90;;;;;;4985976;28;20129;-83
2023/01/05 09:17:05;;;;;;;0.50;0.50;;;8.90;99.90;;;;;;4988613;28;21265;-83
2023/01/05 09:19:30;;;;;;;0.43;0.43;;;8.90;99.90;;;;;;4987940;28;20567;-84
2023/01/05 09:21:56;;;;;;;0.68;0.68;;;8.90;99.90;;;;;;4988307;28;20045;-84
2023/01/05 09:24:22;;;;;;;0.43;0.43;;;8.80;99.90;;;;;;4991135;28;20042;-83
2023/01/05 09:26:49;;;;;;;0.70;0.70;;;8.80;99.90;;;;;;4971275;28;20054;-83
2023/01/05 09:29:15;;;;;;;0.40;0.40;;;8.80;99.90;;;;;;4967598;28;20044;-84
2023/01/05 09:31:41;;;;;;;0.35;0.35;;;8.80;99.90;;;;;;4987685;28;20042;-84
2023/01/05 09:34:07;;;;;;;0.40;0.40;;;8.80;99.90;;;;;;4985497;28;20046;-84
2023/01/05 09:36:33;;;;;;;0.45;0.45;;;8.80;99.90;;;;;;4987241;28;20101;-83
2023/01/05 09:38:59;;;;;;;0.40;0.40;;;8.90;99.90;;;;;;4970004;28;20042;-85
2023/01/05 09:41:44;;;;;;;1.83;1.73;;;8.90;99.90;;;;;;4987363;28;20114;-83
2023/01/05 09:44:36;;;;;;;0.40;0.40;;;8.90;99.90;;;;;;4985570;28;20088;-83
2023/01/05 09:47:10;;;;;;;0.50;0.50;;;8.90;99.90;;;;;;5003805;28;20092;-84
2023/01/05 09:49:38;;;;;;;0.40;0.40;;;8.90;99.90;;;;;;4986773;28;22060;-83
2023/01/05 09:52:09;;;;;;;0.50;0.50;;;8.90;99.90;;;;;;4985299;28;20479;-83
2023/01/05 09:54:36;;;;;;;0.50;0.50;;;9.00;99.90;;;;;;4987548;28;20046;-83
2023/01/05 09:57:04;;;;;;;0.40;0.40;;;8.90;99.90;;;;;;4999859;28;20125;-83
2023/01/05 09:59:43;;;;;;;0.40;0.40;;;9.00;99.90;;;;;;4999615;28;20042;-83
2023/01/05 10:02:40;;;;;;;0.38;0.38;;;9.00;99.90;;;;;;4980298;28;20093;-84
2023/01/05 10:05:10;;;;;;;2.53;0.98;;;9.10;99.90;;;;;;4973165;28;20042;-83
2023/01/05 10:08:17;;;;;;;0.47;0.47;;;9.10;99.90;;;;;;4987687;28;20038;-83
2023/01/05 10:14:27;;;;;;;0.63;0.63;;;9.10;99.90;;;;;;5003230;28;20072;-84
2023/01/05 10:16:53;;;;;;;0.43;0.43;;;9.20;99.90;;;;;;4986463;28;20056;-85
2023/01/05 10:19:20;;;;;;;0.57;0.57;;;9.20;99.90;;;;;;4988307;28;20046;-83
2023/01/05 10:22:02;;;;;;;0.30;0.30;;;9.20;99.90;;;;;;4968407;28;20098;-84
2023/01/05 10:24:51;;;;;;;0.30;0.30;;;9.20;99.90;;;;;;4985928;28;20118;-84
2023/01/05 10:27:47;;;;;;;0.35;0.35;;;9.30;99.90;;;;;;4988921;28;20081;-82
2023/01/05 10:30:23;;;;;;;0.98;0.98;;;9.30;99.90;;;;;;4989514;28;20057;-83
2023/01/05 10:32:58;;;;;;;0.40;0.40;;;9.30;99.90;;;;;;5009081;28;20046;-83
2023/01/05 10:36:01;;;;;;;0.40;0.40;;;9.30;99.90;;;;;;4972433;28;20050;-85
2023/01/05 10:38:54;;;;;;;1.13;0.75;;;9.30;99.90;;;;;;4989289;28;20046;-83
2023/01/05 10:41:33;;;;;;;0.40;0.40;;;9.30;99.90;;;;;;4985283;28;20101;-84
2023/01/05 10:44:34;;;;;;;1.35;1.35;;;9.30;99.90;;;;;;4998954;28;20522;-83
2023/01/05 10:47:01;;;;;;;0.32;0.32;;;9.30;99.90;;;;;;4968582;28;20046;-85
2023/01/05 10:49:30;;;;;;;;;;;9.40;99.90;;;;;;4977408;28;20077;-83
2023/01/05 10:52:00;;;;;;;0.40;0.40;;;9.40;99.90;;;;;;4986678;28;19979;-87
2023/01/05 10:54:40;;;;;;;0.40;0.40;;;9.40;99.90;;;;;;4990065;28;20125;-86
2023/01/05 10:57:32;;;;;;;0.85;0.60;;;9.40;99.90;;;;;;4987169;28;20073;-86
2023/01/05 11:00:11;;;;;;;0.60;0.60;;;9.50;99.90;;;;;;5005887;28;20034;-86
2023/01/05 11:03:02;;;;;;;0.50;0.50;;;9.50;99.90;;;;;;5004977;28;20043;-89
2023/01/05 11:05:40;;;;;;;0.50;0.50;;;9.60;99.90;;;;;;4989074;28;20049;-81
2023/01/05 11:08:26;;;;;;;0.50;0.50;;;9.60;99.90;;;;;;5001417;28;20054;-85
2023/01/05 11:11:03;;;;;;;0.40;0.40;;;9.70;99.90;;;;;;4985168;28;20057;-84
2023/01/05 11:13:32;;;;;;;0.47;0.47;;;9.70;99.90;;;;;;4984903;28;20054;-82
2023/01/05 11:16:19;;;;;;;0.45;0.45;;;9.70;99.90;;;;;;4982450;28;20112;-82
2023/01/05 11:18:58;;;;;;;0.60;0.60;;;9.70;99.90;;;;;;4988119;28;20050;-84
2023/01/05 11:21:33;;;;;;;0.40;0.40;;;9.70;99.90;;;;;;4987376;28;20144;-83
2023/01/05 11:23:59;;;;;;;0.55;0.55;;;9.70;99.90;;;;;;5002051;28;20101;-83
2023/01/05 11:26:36;;;;;;;0.40;0.40;;;9.70;99.90;;;;;;4982365;28;20125;-86
2023/01/05 11:29:08;;;;;;;0.40;0.40;;;9.70;99.90;;;;;;4982508;28;20053;-83
2023/01/05 11:31:37;;;;;;;0.55;0.55;;;9.70;99.90;;;;;;4997226;28;20096;-84
2023/01/05 11:34:14;;;;;;;0.60;0.60;;;9.70;99.90;;;;;;5000618;28;20046;-83
2023/01/05 11:36:41;;;;;;;0.50;0.50;;;9.70;99.90;;;;;;4982373;28;20635;-84
2023/01/05 11:39:19;;;;;;;0.40;0.40;;;9.60;99.90;;;;;;4984366;28;20156;-86
2023/01/05 11:41:45;;;;;;;0.50;0.50;;;9.60;99.90;;;;;;5001384;28;20052;-84
2023/01/05 11:44:21;;;;;;;0.55;0.55;;;9.50;99.90;;;;;;4980066;28;20050;-83
2023/01/05 11:46:48;;;;;;;0.50;0.50;;;9.60;99.90;;;;;;4985555;28;20500;-86
2023/01/05 11:49:18;;;;;;;0.47;0.47;;;9.60;99.90;;;;;;4969447;28;20389;-82
2023/01/05 11:51:49;;;;;;;0.50;0.50;;;9.60;99.90;;;;;;4976135;28;20065;-83
2023/01/05 11:54:36;;;;;;;0.50;0.50;;;9.50;99.90;;;;;;4969943;28;20046;-83
2023/01/05 11:57:13;;;;;;;0.40;0.40;;;9.50;99.90;;;;;;4987072;28;20045;-83
2023/01/05 11:59:39;;;;;;;0.50;0.50;;;9.60;99.90;;;;;;4986006;28;20435;-85
2023/01/05 12:02:46;;;;;;;0.52;0.52;;;9.60;99.90;;;;;;4987360;28;20042;-87
2023/01/05 12:05:44;;;;;;;0.47;0.47;;;9.60;99.90;;;;;;4983543;28;20458;-83
2023/01/05 12:08:19;;;;;;;0.50;0.50;;;9.60;99.90;;;;;;4986890;28;20112;-81
2023/01/05 12:10:51;;;;;;;0.60;0.60;;;9.50;99.90;;;;;;4981826;28;20051;-82
2023/01/05 12:13:30;;;;;;;0.32;0.32;;;9.60;99.90;;;;;;4982793;28;20376;-85
2023/01/05 12:16:16;;;;;;;2.10;2.00;;;9.60;99.90;;;;;;4982579;28;20693;-82
2023/01/05 12:18:41;;;;;;;1.77;1.05;;;9.70;99.90;;;;;;5000192;28;20046;-84
2023/01/05 12:21:23;;;;;;;0.60;0.60;;;9.70;99.90;;;;;;4985978;28;20105;-86
2023/01/05 12:23:56;;;;;;;9.13;1.20;;;9.80;99.90;;;;;;4963137;28;20084;-82
2023/01/05 12:26:46;;;;;;;0.43;0.43;;;9.80;99.90;;;;;;4982500;28;20058;-84
2023/01/05 12:29:33;;;;;;;0.50;0.50;;;9.90;99.90;;;;;;4969396;28;20120;-83
2023/01/05 12:32:18;;;;;;;0.50;0.50;;;10.00;99.90;;;;;;4985318;28;20050;-84
2023/01/05 12:35:26;;;;;;;0.45;0.45;;;10.10;99.90;;;;;;4984938;28;20042;-84
2023/01/05 12:38:22;;;;;;;0.35;0.35;;;10.10;99.90;;;;;;4968952;28;20050;-84
2023/01/05 12:41:06;;;;;;;0.40;0.40;;;10.10;99.90;;;;;;4987545;28;20041;-83
2023/01/05 12:44:09;;;;;;;0.30;0.30;;;10.20;99.90;;;;;;4969173;28;20038;-83
2023/01/05 12:46:48;;;;;;;0.30;0.30;;;10.20;99.90;;;;;;4968897;28;20038;-83
2023/01/05 12:49:17;;;;;;;0.40;0.40;;;10.20;99.90;;;;;;4988614;28;20038;-84
2023/01/05 12:52:20;;;;;;;0.73;0.52;;;10.20;99.90;;;;;;4983687;28;20042;-83
2023/01/05 12:54:57;;;;;;;0.50;0.50;;;10.10;99.90;;;;;;4962595;28;20129;-82
2023/01/05 12:57:32;;;;;;;0.30;0.30;;;10.00;99.90;;;;;;4970777;28;20049;-83
2023/01/05 13:00:00;;;;;;;0.40;0.40;;;10.00;99.90;;;;;;4984313;28;20472;-85
2023/01/05 13:02:43;;;;;;;0.43;0.43;;;10.00;99.90;;;;;;4985962;28;20116;-82
2023/01/05 13:05:41;;;;;;;0.50;0.50;;;9.90;99.90;;;;;;4968211;28;20045;-84
2023/01/05 13:08:34;;;;;;;0.50;0.50;;;9.90;99.90;;;;;;4990615;28;20046;-81
2023/01/05 13:11:33;;;;;;;0.45;0.45;;;9.80;99.90;;;;;;4990797;28;20054;-83
2023/01/05 13:14:09;;;;;;;0.40;0.40;;;9.80;99.90;;;;;;4965567;28;20052;-83
2023/01/05 13:16:59;;;;;;;0.40;0.40;;;9.70;99.90;;;;;;4989140;28;20081;-82
2023/01/05 13:19:44;;;;;;;0.40;0.40;;;9.70;99.90;;;;;;4986915;28;20042;-85
2023/01/05 13:22:24;;;;;;;10.15;1.30;;;9.70;99.90;;;;;;4973377;28;20500;-83
2023/01/05 13:25:28;;;;;;;1.23;1.23;;;9.80;99.90;;;;;;4974052;28;20439;-84
2023/01/05 13:27:54;;;;;;;1.17;1.17;;;9.90;99.90;;;;;;4961281;28;20065;-84
2023/01/05 13:30:32;;;;;;;0.43;0.43;;;9.90;99.90;;;;;;4990546;28;20058;-83
2023/01/05 13:33:55;;;;;;;1.60;1.50;;;9.90;99.90;;;;;;4989627;28;20248;-83
2023/01/05 13:36:42;;;;;;;0.20;0.20;;;9.90;99.90;;;;;;4896637;29;20058;-84
2023/01/05 13:39:24;;;;;;;0.38;0.38;;;9.90;99.90;;;;;;4917588;29;20059;-83
2023/01/05 13:42:31;;;;;;;0.85;0.85;;;9.90;99.90;;;;;;4959795;28;20085;-81
2023/01/05 13:45:06;;;;;;;0.60;0.60;;;9.80;99.90;;;;;;4984070;28;20034;-82
2023/01/05 13:48:08;;;;;;;0.60;0.60;;;9.80;99.90;;;;;;4977593;28;20114;-82
2023/01/05 13:51:02;;;;;;;0.60;0.60;;;9.80;99.90;;;;;;4993252;28;20034;-83
2023/01/05 13:53:29;;;;;;;0.50;0.50;;;9.70;99.90;;;;;;4989023;28;20038;-82
2023/01/05 13:55:57;;;;;;;0.38;0.38;;;9.70;99.90;;;;;;4975248;28;20033;-84
2023/01/05 13:58:43;;;;;;;0.65;0.65;;;9.70;99.90;;;;;;5001426;28;20043;-83